Alexander, Illinois
Current Conditions -  °F | °C
As of 10:15 AM on Monday 26 Jan 2015 (Local Time) from KIJX Reporting Station
Overcast Overcast  
Wind Chill: 23°   Ceiling: 2400
Heat Index: 30°   Visibility: 7mi
Dew Point: 26°   Wind: 7mph
Humidity: 84%   Direction: 170°S
Pressure: 29.97"   Gusts: NA
Location:  39.72°N, 90.04°W
Report Text: KIJX 261615Z AUTO 17006KT 7SM OVC024 M01/M03 A2997 RMK AO2 T10111035
Loading
Personal Weather Stations






























Interactive Weather Map New forecast layout! Learn more

10-Day Weather Forecast

Advertisements
Track Severe Weather on mobile